Airfield :







YOU CAN JOIN US ON...

 
LOGIN :

Register | Disclaimer

   EN    FR    IT 

 









Legend :    VFR   Marginal VFR   IFR   Intensive IFR   Very Intensive IFR
Visi :
Ceiling :
>= 8 km
>= 3000ft
5 to 8 km
1000 to 3000 ft
1500m to 5 km
500 to 1000 ft
800 to 1500m
200 to 500 ft
< 800m
< 200 ft
Symbols :   Thunderstorms  Fog  Heavy snow  Heavy precipitations  Wind > 20 kt






- Airport Elevation : 68 ft
- IATA code : YFC


CYFC - Fredericton

CURRENT METAR :
  • 301100Z AUTO 27003KT 240V310 9SM CLR M07/M11 A3013 RMK SLP205

EXPIRED METARs :
  • 301000Z AUTO 29009G15KT 9SM FEW055 M05/M09 A3007 RMK SLP187
  • 300900Z AUTO 28011G17KT 230V300 9SM FEW014 BKN066 M02/M05 A3002 RMK SLP168

TAF TAF CYFC
Valid from the 30 at 06:00 until the 30 at 18:00 UTC


300540Z 3006/3018 23010G20KT P6SM SCT020 BKN030
TEMPO 3006/3010 3SM -RA BR OVC020
BECMG 3007/3009 29010KT
FM301000 29009KT P6SM SCT020
TEMPO 3010/3012 BKN020
FM301700 29008KT P6SM BKN120 RMK FCST BASED ON AUTO OBS. NXT FCST BY 301200Z
CZQM FIR / North America



MET'MAP, your aeronautical weather chart ! - Copyright ORBIFLY December 2007 - Disclaimer

ORBIFLY MET'MAP TEAM :

Programming & Development : Alexandra Zaïnal
Original concept : Baudouin d'Aumeries
Technical & hardware support : Manuel Goepfert
Assistance : Marc-Olivier Méhu




SOURCES & CREDITS :

   NOAA